createdAt,value
2019-03-10T00:00:38.858Z,95.70
2019-03-10T00:04:40.767Z,95.40
2019-03-10T00:08:42.706Z,95.40
2019-03-10T00:12:44.620Z,95.50
2019-03-10T00:16:46.523Z,95.50
2019-03-10T00:20:48.423Z,95.70
2019-03-10T00:24:50.326Z,95.60
2019-03-10T00:28:52.255Z,95.60
2019-03-10T00:32:54.233Z,95.70
2019-03-10T00:36:56.144Z,95.80
2019-03-10T00:41:11.165Z,96.00
2019-03-10T00:45:34.085Z,96.00
2019-03-10T00:50:29.115Z,96.10
2019-03-10T00:54:31.029Z,96.30
2019-03-10T00:58:32.938Z,95.90
2019-03-10T01:02:34.848Z,96.00
2019-03-10T01:06:36.755Z,96.40
2019-03-10T01:10:38.663Z,96.10
2019-03-10T01:14:40.561Z,95.80
2019-03-10T01:18:43.882Z,95.90
2019-03-10T01:22:45.800Z,96.30
2019-03-10T01:26:47.694Z,96.10
2019-03-10T01:31:06.108Z,96.30
2019-03-10T01:35:21.574Z,96.80
2019-03-10T01:39:23.621Z,97.40
2019-03-10T01:43:25.529Z,97.20
2019-03-10T01:47:27.451Z,97.40
2019-03-10T01:51:29.555Z,97.20
2019-03-10T01:55:31.467Z,96.90
2019-03-10T01:59:33.384Z,96.90
2019-03-10T02:03:35.287Z,96.60
2019-03-10T02:07:37.202Z,96.90
2019-03-10T02:11:39.090Z,96.80
2019-03-10T02:15:40.998Z,96.30
2019-03-10T02:19:43.309Z,96.50
2019-03-10T02:23:45.196Z,96.50
2019-03-10T02:27:47.106Z,96.60
2019-03-10T02:31:49.017Z,96.60
2019-03-10T02:35:50.914Z,96.90
2019-03-10T02:39:52.823Z,97.00
2019-03-10T02:43:55.035Z,96.80
2019-03-10T02:47:56.932Z,97.00
2019-03-10T02:51:58.838Z,96.70
2019-03-10T02:56:00.724Z,96.80
2019-03-10T03:00:02.690Z,96.80
2019-03-10T03:04:05.838Z,96.20
2019-03-10T03:08:07.834Z,95.70
2019-03-10T03:12:09.738Z,95.30
2019-03-10T03:16:12.612Z,95.10
2019-03-10T03:20:14.683Z,95.00
2019-03-10T03:24:16.621Z,94.90
2019-03-10T03:28:18.488Z,95.20
2019-03-10T03:32:20.524Z,95.20
2019-03-10T03:36:27.311Z,95.30
2019-03-10T03:40:29.568Z,94.90
2019-03-10T03:44:31.490Z,94.80
2019-03-10T03:48:33.398Z,94.70
2019-03-10T03:52:35.286Z,94.50
2019-03-10T03:56:37.420Z,94.70
2019-03-10T04:00:39.376Z,94.80
2019-03-10T04:04:41.289Z,94.90
2019-03-10T04:08:43.215Z,95.30
2019-03-10T04:12:45.145Z,95.10
2019-03-10T04:16:47.092Z,95.10
2019-03-10T04:20:49.006Z,94.70
2019-03-10T04:24:50.906Z,95.20
2019-03-10T04:28:52.894Z,95.20
2019-03-10T04:32:54.814Z,95.00
2019-03-10T04:36:56.728Z,95.10
2019-03-10T04:40:58.735Z,95.60
2019-03-10T04:45:00.683Z,95.50
2019-03-10T04:49:02.735Z,95.40
2019-03-10T04:53:04.856Z,95.30
2019-03-10T04:57:09.367Z,95.20
2019-03-10T05:01:11.341Z,95.00
2019-03-10T05:05:14.538Z,95.10
2019-03-10T05:09:16.687Z,95.10
2019-03-10T05:13:18.608Z,95.20
2019-03-10T05:17:20.540Z,95.60
2019-03-10T05:21:22.433Z,96.00
2019-03-10T05:25:25.351Z,96.00
2019-03-10T05:29:27.257Z,96.00
2019-03-10T05:33:29.698Z,96.10
2019-03-10T05:37:49.986Z,96.50
2019-03-10T05:41:53.856Z,96.30
2019-03-10T05:45:55.954Z,96.80
2019-03-10T05:49:57.859Z,96.80
2019-03-10T05:54:00.936Z,96.90
2019-03-10T05:58:02.865Z,96.90
2019-03-10T06:02:04.766Z,97.20
2019-03-10T06:06:06.674Z,96.80
2019-03-10T06:10:08.639Z,96.90
2019-03-10T06:14:10.518Z,97.10
2019-03-10T06:18:13.884Z,97.20
2019-03-10T06:22:16.084Z,97.30
2019-03-10T06:26:17.945Z,97.50
2019-03-10T06:30:19.910Z,97.40
2019-03-10T06:34:23.614Z,97.50
2019-03-10T06:38:25.504Z,97.50
2019-03-10T06:42:27.412Z,97.30
2019-03-10T06:46:29.587Z,97.30
2019-03-10T06:50:31.490Z,97.30
2019-03-10T06:54:33.376Z,97.20
2019-03-10T06:58:35.284Z,96.90
2019-03-10T07:02:37.190Z,96.70
2019-03-10T07:06:39.084Z,96.40
2019-03-10T07:10:40.999Z,96.50
2019-03-10T07:14:42.885Z,96.60
2019-03-10T07:18:45.760Z,96.70
2019-03-10T07:22:47.672Z,96.70
2019-03-10T07:26:49.572Z,96.70
2019-03-10T07:30:53.092Z,96.90
2019-03-10T07:35:05.409Z,96.90
2019-03-10T07:39:09.830Z,97.10
2019-03-10T07:43:13.366Z,97.20
2019-03-10T07:47:23.040Z,97.40
2019-03-10T07:51:26.600Z,97.30
2019-03-10T07:55:40.066Z,97.30
2019-03-10T07:59:50.965Z,97.20
2019-03-10T08:03:54.500Z,97.30
2019-03-10T08:08:14.279Z,96.90
2019-03-10T08:12:23.729Z,96.90
2019-03-10T08:16:30.297Z,96.90
2019-03-10T08:20:45.743Z,96.70
2019-03-10T08:25:01.739Z,96.50
2019-03-10T08:29:23.438Z,96.30
2019-03-10T08:33:32.799Z,95.90
2019-03-10T08:37:39.321Z,95.70
2019-03-10T08:41:42.872Z,95.80
2019-03-10T08:45:49.323Z,95.90
2019-03-10T08:49:52.935Z,96.00
2019-03-10T08:53:56.480Z,96.50
2019-03-10T08:58:02.884Z,96.20
2019-03-10T09:02:09.288Z,96.50
2019-03-10T09:06:28.993Z,96.30
2019-03-10T09:10:41.409Z,96.20
2019-03-10T09:14:45.101Z,96.20
2019-03-10T09:19:03.744Z,96.60
2019-03-10T09:23:13.507Z,96.50
2019-03-10T09:27:28.287Z,96.80
2019-03-10T09:31:46.671Z,96.80
2019-03-10T09:36:04.945Z,96.60
2019-03-10T09:40:12.682Z,96.60
2019-03-10T09:44:14.357Z,96.70
2019-03-10T09:48:24.797Z,96.80
2019-03-10T09:52:26.453Z,96.70
2019-03-10T09:56:43.235Z,96.50
2019-03-10T10:01:02.479Z,96.90
2019-03-10T10:05:10.523Z,96.40
2019-03-10T10:09:25.932Z,96.40
2019-03-10T10:13:38.435Z,96.80
2019-03-10T10:17:42.679Z,96.80
2019-03-10T10:21:44.346Z,96.90
2019-03-10T10:25:47.889Z,96.70
2019-03-10T10:30:09.733Z,96.60
2019-03-10T10:34:31.256Z,96.80
2019-03-10T10:38:50.875Z,96.80
2019-03-10T10:43:07.771Z,96.80
2019-03-10T10:47:14.930Z,96.70
2019-03-10T10:51:19.302Z,96.50
2019-03-10T10:55:25.717Z,96.40
2019-03-10T10:59:29.250Z,96.60
2019-03-10T11:03:44.861Z,96.70
2019-03-10T11:07:50.824Z,96.50
2019-03-10T11:12:06.580Z,96.60
2019-03-10T11:16:10.123Z,96.80
2019-03-10T11:20:13.918Z,96.60
2019-03-10T11:24:17.489Z,96.60
2019-03-10T11:28:39.360Z,96.50
2019-03-10T11:32:42.917Z,96.60
2019-03-10T11:36:52.090Z,96.10
2019-03-10T11:40:56.685Z,96.00
2019-03-10T11:45:00.440Z,95.20
2019-03-10T11:49:07.083Z,95.30
2019-03-10T11:53:18.741Z,95.60
2019-03-10T11:57:31.917Z,95.20
2019-03-10T12:01:41.281Z,94.50
2019-03-10T12:06:02.628Z,93.90
2019-03-10T12:10:07.361Z,94.00
2019-03-10T12:14:09.480Z,93.90
2019-03-10T12:18:11.379Z,93.80
2019-03-10T12:22:13.318Z,93.60
2019-03-10T12:26:15.304Z,93.50
2019-03-10T12:30:17.880Z,92.30
2019-03-10T12:34:19.844Z,92.30
2019-03-10T12:38:21.816Z,92.30
2019-03-10T12:42:23.715Z,92.00
2019-03-10T12:46:25.808Z,91.60
2019-03-10T12:50:27.725Z,91.80
2019-03-10T12:54:29.939Z,91.50
2019-03-10T12:58:31.962Z,92.00
2019-03-10T13:02:34.092Z,92.20
2019-03-10T13:06:36.114Z,92.70
2019-03-10T13:10:38.039Z,92.90
2019-03-10T13:14:39.942Z,93.80
2019-03-10T13:18:41.860Z,93.40
2019-03-10T13:22:43.921Z,94.20
2019-03-10T13:26:45.833Z,93.50
2019-03-10T13:30:47.786Z,93.50
2019-03-10T13:34:49.695Z,93.30
2019-03-10T13:38:51.619Z,92.40
2019-03-10T13:42:53.655Z,91.20
2019-03-10T13:46:55.606Z,90.40
2019-03-10T13:50:57.548Z,90.90
2019-03-10T13:54:59.449Z,91.10
2019-03-10T13:59:01.659Z,91.20
2019-03-10T14:03:03.575Z,88.90
2019-03-10T14:07:05.668Z,89.70
2019-03-10T14:11:07.580Z,86.00
2019-03-10T14:15:15.909Z,84.90
2019-03-10T14:19:17.862Z,87.60
2019-03-10T14:23:19.737Z,90.20
2019-03-10T14:27:21.657Z,90.40
2019-03-10T14:31:23.576Z,89.30
2019-03-10T14:35:25.482Z,87.70
2019-03-10T14:39:35.859Z,85.50
2019-03-10T14:43:37.757Z,86.30
2019-03-10T14:47:39.681Z,86.20
2019-03-10T14:51:41.577Z,87.20
2019-03-10T14:55:43.487Z,84.60
2019-03-10T14:59:45.405Z,83.70
2019-03-10T15:03:47.323Z,85.20
2019-03-10T15:07:49.248Z,83.90
2019-03-10T15:11:51.161Z,81.90
2019-03-10T15:15:53.061Z,81.40
2019-03-10T15:19:54.976Z,77.40
2019-03-10T15:23:56.894Z,75.90
2019-03-10T15:27:58.827Z,75.70
2019-03-10T15:32:00.737Z,75.20
2019-03-10T15:36:02.649Z,75.30
2019-03-10T15:40:07.830Z,71.90
2019-03-10T15:44:09.733Z,72.50
2019-03-10T15:48:11.655Z,72.00
2019-03-10T15:52:13.576Z,69.50
2019-03-10T15:56:15.464Z,71.20
2019-03-10T16:00:20.706Z,68.60
2019-03-10T16:04:22.896Z,67.80
2019-03-10T16:08:24.803Z,65.70
2019-03-10T16:12:26.730Z,65.30
2019-03-10T16:16:28.637Z,64.90
2019-03-10T16:20:30.553Z,65.40
2019-03-10T16:24:32.472Z,66.00
2019-03-10T16:28:34.395Z,66.50
2019-03-10T16:32:36.310Z,65.00
2019-03-10T16:36:38.216Z,65.30
2019-03-10T16:40:40.137Z,63.30
2019-03-10T16:44:42.054Z,61.70
2019-03-10T16:48:44.032Z,62.90
2019-03-10T16:52:45.976Z,62.50
2019-03-10T16:56:47.881Z,63.40
2019-03-10T17:00:49.865Z,60.60
2019-03-10T17:04:51.772Z,59.00
2019-03-10T17:08:53.695Z,56.60
2019-03-10T17:12:55.976Z,54.80
2019-03-10T17:16:57.893Z,54.00
2019-03-10T17:20:59.792Z,53.60
2019-03-10T17:25:01.721Z,53.50
2019-03-10T17:29:03.637Z,52.50
2019-03-10T17:33:05.645Z,52.10
2019-03-10T17:37:07.567Z,51.30
2019-03-10T17:41:09.481Z,51.50
2019-03-10T17:45:22.981Z,50.40
2019-03-10T17:49:24.972Z,49.80
2019-03-10T17:53:26.902Z,50.10
2019-03-10T17:57:30.045Z,49.80
2019-03-10T18:01:31.964Z,50.30
2019-03-10T18:05:33.881Z,50.40
2019-03-10T18:09:35.801Z,51.70
2019-03-10T18:13:37.697Z,51.30
2019-03-10T18:17:39.601Z,51.50
2019-03-10T18:21:41.511Z,52.20
2019-03-10T18:25:43.491Z,53.50
2019-03-10T18:29:45.395Z,51.10
2019-03-10T18:33:47.292Z,49.20
2019-03-10T18:37:50.179Z,49.20
2019-03-10T18:41:52.102Z,48.30
2019-03-10T18:45:54.006Z,47.60
2019-03-10T18:49:55.963Z,48.10
2019-03-10T18:53:57.965Z,48.80
2019-03-10T18:57:59.872Z,50.20
2019-03-10T19:02:01.786Z,50.30
2019-03-10T19:06:04.953Z,51.40
2019-03-10T19:10:13.030Z,50.90
2019-03-10T19:14:14.962Z,52.20
2019-03-10T19:18:16.856Z,52.60
2019-03-10T19:22:18.764Z,53.80
2019-03-10T19:26:21.131Z,54.60
2019-03-10T19:30:24.662Z,53.60
2019-03-10T19:34:26.581Z,54.00
2019-03-10T19:38:30.187Z,55.00
2019-03-10T19:42:32.159Z,57.50
2019-03-10T19:46:34.046Z,60.00
2019-03-10T19:50:35.955Z,61.80
2019-03-10T19:54:37.888Z,62.50
2019-03-10T19:58:42.816Z,62.40
2019-03-10T20:02:45.040Z,63.20
2019-03-10T20:06:47.935Z,63.90
2019-03-10T20:10:49.813Z,62.90
2019-03-10T20:14:51.715Z,63.50
2019-03-10T20:18:53.614Z,61.20
2019-03-10T20:22:55.637Z,60.70
2019-03-10T20:26:57.538Z,60.90
2019-03-10T20:30:59.446Z,60.90
2019-03-10T20:35:01.331Z,64.70
2019-03-10T20:39:05.059Z,76.20
2019-03-10T20:43:08.566Z,82.90
2019-03-10T20:47:10.465Z,86.70
2019-03-10T20:51:12.363Z,88.40
2019-03-10T20:55:15.403Z,90.40
2019-03-10T20:59:17.296Z,90.60
2019-03-10T21:03:19.202Z,90.40
2019-03-10T21:07:21.134Z,90.30
2019-03-10T21:11:23.041Z,90.80
2019-03-10T21:15:26.594Z,90.50
2019-03-10T21:19:28.718Z,90.90
2019-03-10T21:23:30.630Z,90.30
2019-03-10T21:27:32.537Z,90.80
2019-03-10T21:31:35.437Z,90.60
2019-03-10T21:35:37.353Z,90.50
2019-03-10T21:39:39.234Z,90.50
2019-03-10T21:43:41.145Z,90.50
2019-03-10T21:47:43.033Z,90.10
2019-03-10T21:51:44.937Z,89.80
2019-03-10T21:55:46.846Z,89.30
2019-03-10T21:59:48.732Z,88.50
2019-03-10T22:03:50.636Z,87.80
2019-03-10T22:07:52.541Z,87.00
2019-03-10T22:11:55.407Z,86.60
2019-03-10T22:15:57.313Z,86.70
2019-03-10T22:19:59.197Z,85.40
2019-03-10T22:24:03.181Z,85.10
2019-03-10T22:28:05.290Z,84.40
2019-03-10T22:32:07.190Z,84.70
2019-03-10T22:36:09.097Z,83.80
2019-03-10T22:40:14.356Z,83.80
2019-03-10T22:44:16.256Z,84.00
2019-03-10T22:48:18.159Z,83.60
2019-03-10T22:52:20.063Z,83.10
2019-03-10T22:56:21.971Z,83.60
2019-03-10T23:00:27.704Z,83.50
2019-03-10T23:04:32.848Z,84.00
2019-03-10T23:08:34.749Z,83.90
2019-03-10T23:12:36.650Z,83.20
2019-03-10T23:16:38.550Z,83.40
2019-03-10T23:20:41.525Z,82.40
2019-03-10T23:24:43.422Z,80.50
2019-03-10T23:28:45.327Z,80.00
2019-03-10T23:32:47.229Z,80.30
2019-03-10T23:36:49.133Z,78.70
2019-03-10T23:40:51.025Z,78.80
2019-03-10T23:44:54.514Z,77.40
2019-03-10T23:48:56.413Z,78.40
2019-03-10T23:52:58.316Z,76.90
2019-03-10T23:57:00.217Z,77.70
